Time;durP1;ratioP1;P1;durP2;ratioP2;P2;SDS_P1;SDS_P2;PMS_P1;PMS_P2;Temp;Humidity;BMP_temperature;BMP_pressure;BME280_temperature;BME280_humidity;BME280_pressure;Samples;Min_cycle;Max_cycle;Signal;HPM_P1;HPM_P2
2023/10/22 00:00:31;;;;;;;;;;;11.20;99.90;;;;;;5014716;28;19964;-79
2023/10/22 00:02:59;;;;;;;;;;;11.20;99.90;;;;;;5014999;28;20364;-78
2023/10/22 00:05:27;;;;;;;;;;;11.10;99.90;;;;;;5030980;28;20224;-78
2023/10/22 00:07:55;;;;;;;;;;;11.10;99.90;;;;;;5014859;28;19966;-79
2023/10/22 00:10:24;;;;;;;;;;;11.10;99.90;;;;;;5015989;28;19967;-79
2023/10/22 00:12:52;;;;;;;;;;;11.20;99.90;;;;;;5008997;28;20312;-82
2023/10/22 00:15:20;;;;;;;;;;;11.20;99.90;;;;;;5016782;28;20038;-78
2023/10/22 00:17:48;;;;;;;;;;;11.30;99.90;;;;;;5029046;28;19959;-78
2023/10/22 00:20:16;;;;;;;;;;;11.30;99.90;;;;;;5021496;28;19971;-77
2023/10/22 00:22:44;;;;;;;;;;;11.30;99.90;;;;;;5015086;28;19967;-75
2023/10/22 00:25:11;;;;;;;;;;;11.20;99.90;;;;;;5014540;28;19971;-75
2023/10/22 00:27:40;;;;;;;;;;;11.10;99.90;;;;;;5022443;28;20379;-77
2023/10/22 00:30:09;;;;;;;;;;;11.00;99.90;;;;;;5014372;28;19964;-76
2023/10/22 00:32:36;;;;;;;;;;;10.90;99.90;;;;;;5014305;28;19964;-77
2023/10/22 00:35:05;;;;;;;;;;;10.80;99.90;;;;;;5013666;28;19998;-77
2023/10/22 00:37:32;;;;;;;;;;;10.80;99.90;;;;;;5014351;28;19963;-78
2023/10/22 00:40:00;;;;;;;;;;;10.80;99.90;;;;;;5014125;28;20323;-76
2023/10/22 00:42:28;;;;;;;;;;;10.80;99.90;;;;;;5022371;28;19967;-76
2023/10/22 00:44:57;;;;;;;;;;;10.80;99.90;;;;;;5021575;28;19960;-77
2023/10/22 00:47:25;;;;;;;;;;;10.70;99.90;;;;;;5013021;28;20014;-76
2023/10/22 00:49:53;;;;;;;;;;;10.60;99.90;;;;;;5013967;28;19959;-76
2023/10/22 00:52:21;;;;;;;;;;;10.60;99.90;;;;;;5021700;28;19963;-76
2023/10/22 00:54:49;;;;;;;;;;;10.50;99.90;;;;;;5021919;28;19994;-76
2023/10/22 00:57:17;;;;;;;;;;;10.60;99.90;;;;;;5022255;28;19971;-75
2023/10/22 00:59:45;;;;;;;;;;;10.60;99.90;;;;;;5013533;28;20009;-76
2023/10/22 01:02:14;;;;;;;;;;;10.60;99.90;;;;;;5013854;28;19963;-79
2023/10/22 01:04:42;;;;;;;;;;;10.70;99.90;;;;;;5013690;28;20517;-76
2023/10/22 01:07:10;;;;;;;;;;;10.70;99.90;;;;;;5013399;28;20010;-76
2023/10/22 01:09:38;;;;;;;;;;;10.70;99.90;;;;;;5013254;28;19963;-76
2023/10/22 01:12:06;;;;;;;;;;;10.70;99.90;;;;;;5013705;28;19964;-75
2023/10/22 01:14:34;;;;;;;;;;;10.70;99.90;;;;;;5021607;28;20005;-78
2023/10/22 01:17:02;;;;;;;;;;;10.70;99.90;;;;;;5013734;28;19959;-76
2023/10/22 01:19:31;;;;;;;;;;;10.80;99.90;;;;;;5013102;28;19963;-76
2023/10/22 01:22:00;;;;;;;;;;;10.70;99.90;;;;;;5013573;28;19966;-76
2023/10/22 01:24:33;;;;;;;;;;;10.70;99.90;;;;;;5013172;28;19963;-78
2023/10/22 01:27:00;;;;;;;;;;;10.70;99.90;;;;;;5013468;28;19960;-77
2023/10/22 01:29:28;;;;;;;;;;;10.60;99.90;;;;;;5020926;28;19968;-76
2023/10/22 01:31:56;;;;;;;;;;;10.60;99.90;;;;;;5013314;28;19966;-79
2023/10/22 01:34:24;;;;;;;;;;;10.50;99.90;;;;;;5021038;28;19970;-76
2023/10/22 01:36:52;;;;;;;;;;;10.50;99.90;;;;;;5013348;28;20009;-76
2023/10/22 01:39:20;;;;;;;;;;;10.60;99.90;;;;;;5012774;28;19967;-75
2023/10/22 01:41:49;;;;;;;;;;;10.50;99.90;;;;;;5029287;28;20062;-75
2023/10/22 01:44:17;;;;;;;;;;;10.50;99.90;;;;;;5012967;28;19971;-75
2023/10/22 01:46:45;;;;;;;;;;;10.50;99.90;;;;;;5012776;28;19963;-81
2023/10/22 01:49:12;;;;;;;;;;;10.50;99.90;;;;;;5012705;28;19964;-75
2023/10/22 01:51:40;;;;;;;;;;;10.50;99.90;;;;;;5012776;28;19970;-74
2023/10/22 01:54:08;;;;;;;;;;;10.50;99.90;;;;;;5012934;28;19963;-77
2023/10/22 01:56:36;;;;;;;;;;;10.60;99.90;;;;;;5020761;28;19967;-77
2023/10/22 01:59:05;;;;;;;;;;;10.60;99.90;;;;;;5012550;28;19964;-77
2023/10/22 02:01:33;;;;;;;;;;;10.70;99.90;;;;;;5020575;28;20101;-76
2023/10/22 02:04:01;;;;;;;;;;;10.70;99.90;;;;;;5020999;28;20006;-75
2023/10/22 02:06:29;;;;;;;;;;;10.80;99.90;;;;;;5020734;28;19974;-74
2023/10/22 02:08:57;;;;;;;;;;;10.80;99.90;;;;;;5024793;28;19959;-74
2023/10/22 02:11:25;;;;;;;;;;;10.80;99.90;;;;;;5016836;28;20034;-75
2023/10/22 02:13:53;;;;;;;;;;;10.80;99.90;;;;;;5016070;28;20017;-74
2023/10/22 02:16:23;;;;;;;;;;;10.80;99.90;;;;;;5016850;28;19970;-75
2023/10/22 02:18:51;;;;;;;;;;;10.80;99.90;;;;;;5015380;28;19967;-74
2023/10/22 02:21:21;;;;;;;;;;;10.80;99.90;;;;;;5017116;28;20389;-74
2023/10/22 02:23:49;;;;;;;;;;;10.80;99.90;;;;;;5015114;28;20009;-75
2023/10/22 02:26:17;;;;;;;;;;;10.70;99.90;;;;;;5017101;28;20664;-77
2023/10/22 02:28:45;;;;;;;;;;;10.70;99.90;;;;;;5011885;28;19963;-78
2023/10/22 02:31:12;;;;;;;;;;;10.60;99.90;;;;;;5023070;28;20009;-75
2023/10/22 02:33:42;;;;;;;;;;;10.60;99.90;;;;;;5012106;28;19963;-75
2023/10/22 02:36:10;;;;;;;;;;;10.60;99.90;;;;;;5012321;28;19963;-76
2023/10/22 02:38:39;;;;;;;;;;;10.50;99.90;;;;;;5011742;28;20064;-77
2023/10/22 02:41:07;;;;;;;;;;;10.50;99.90;;;;;;5012151;28;20058;-77
2023/10/22 02:43:34;;;;;;;;;;;10.50;99.90;;;;;;5011837;28;20504;-77
2023/10/22 02:46:02;;;;;;;;;;;10.40;99.90;;;;;;5016680;28;20340;-77
2023/10/22 02:48:30;;;;;;;;;;;10.50;99.90;;;;;;5014540;28;20007;-77
2023/10/22 02:51:03;;;;;;;;;;;10.40;99.90;;;;;;5011999;28;19969;-79
2023/10/22 02:53:31;;;;;;;;;;;10.40;99.90;;;;;;5019812;28;20067;-76
2023/10/22 02:56:01;;;;;;;;;;;10.40;99.90;;;;;;5012064;28;19959;-76
2023/10/22 02:58:29;;;;;;;;;;;10.30;99.90;;;;;;5027832;28;19967;-75
2023/10/22 03:01:03;;;;;;;;;;;10.30;99.90;;;;;;5011864;28;19966;-76
2023/10/22 03:03:30;;;;;;;;;;;10.30;99.90;;;;;;5019739;28;19983;-78
2023/10/22 03:06:00;;;;;;;;;;;10.30;99.90;;;;;;5019886;28;20010;-79
2023/10/22 03:08:28;;;;;;;;;;;10.30;99.90;;;;;;5019074;28;19963;-77
2023/10/22 03:10:55;;;;;;;;;;;10.30;99.90;;;;;;5003691;28;20434;-75
2023/10/22 03:13:23;;;;;;;;;;;10.30;99.90;;;;;;5011779;28;19967;-76
2023/10/22 03:15:51;;;;;;;;;;;10.30;99.90;;;;;;5011404;28;19959;-76
2023/10/22 03:18:19;;;;;;;;;;;10.30;99.90;;;;;;5011543;28;20442;-75
2023/10/22 03:20:47;;;;;;;;;;;10.30;99.90;;;;;;5011124;28;20330;-76
2023/10/22 03:23:16;;;;;;;;;;;10.30;99.90;;;;;;5011545;28;20018;-76
2023/10/22 03:25:45;;;;;;;;;;;10.30;99.90;;;;;;5011359;28;19964;-74
2023/10/22 03:28:12;;;;;;;;;;;10.30;99.90;;;;;;5017307;28;19964;-76
2023/10/22 03:30:40;;;;;;;;;;;10.30;99.90;;;;;;5015861;28;20018;-75
2023/10/22 03:33:08;;;;;;;;;;;10.30;99.90;;;;;;5011462;28;19963;-77
2023/10/22 03:35:36;;;;;;;;;;;10.40;99.90;;;;;;5012075;28;19968;-75
2023/10/22 03:38:04;;;;;;;;;;;10.30;99.90;;;;;;5018051;28;19964;-75
2023/10/22 03:40:34;;;;;;;;;;;10.40;99.90;;;;;;5011413;28;20401;-75
2023/10/22 03:43:02;;;;;;;;;;;10.40;99.90;;;;;;5026834;28;19982;-77
2023/10/22 03:45:31;;;;;;;;;;;10.40;99.90;;;;;;5019269;28;20061;-82
2023/10/22 03:47:59;;;;;;;;;;;10.50;99.90;;;;;;5015197;28;19967;-73
2023/10/22 03:50:26;;;;;;;;;;;10.50;99.90;;;;;;5023123;28;19963;-75
2023/10/22 03:52:54;;;;;;;;;;;10.50;99.90;;;;;;5011137;28;19959;-76
2023/10/22 03:55:22;;;;;;;;;;;10.50;99.90;;;;;;5011241;28;19960;-76
2023/10/22 03:57:51;;;;;;;;;;;10.50;99.90;;;;;;5019180;28;19963;-75
2023/10/22 04:00:20;;;;;;;;;;;10.60;99.90;;;;;;5011217;28;19963;-75
2023/10/22 04:02:48;;;;;;;;;;;10.60;99.90;;;;;;5019397;28;19967;-75
2023/10/22 04:05:16;;;;;;;;;;;10.70;99.90;;;;;;5011165;28;19983;-77
2023/10/22 04:07:44;;;;;;;;;;;10.70;99.90;;;;;;5019157;28;19963;-75
2023/10/22 04:10:11;;;;;;;;;;;10.70;99.90;;;;;;5019097;28;19979;-75
2023/10/22 04:12:39;;;;;;;;;;;10.80;99.90;;;;;;5010898;28;19963;-75
2023/10/22 04:15:09;;;;;;;;;;;10.80;99.90;;;;;;5010904;28;20025;-75
2023/10/22 04:17:37;;;;;;;;;;;10.80;99.90;;;;;;5010944;28;19963;-74
2023/10/22 04:20:05;;;;;;;;;;;10.90;99.90;;;;;;5011354;28;20013;-75
2023/10/22 04:22:33;;;;;;;;;;;10.80;99.90;;;;;;5014893;28;19964;-77
2023/10/22 04:25:05;;;;;;;;;;;10.80;99.90;;;;;;5021821;28;20066;-77
2023/10/22 04:27:32;;;;;;;;;;;10.80;99.90;;;;;;5014321;28;19964;-76
2023/10/22 04:30:00;;;;;;;;;;;10.80;99.90;;;;;;5014288;28;19983;-76
2023/10/22 04:32:29;;;;;;;;;;;10.80;99.90;;;;;;5014617;28;20054;-77
2023/10/22 04:34:57;;;;;;;;;;;10.80;99.90;;;;;;5006520;28;19966;-76
2023/10/22 04:37:27;;;;;;;;;;;10.80;99.90;;;;;;5014579;28;19964;-76
2023/10/22 04:39:55;;;;;;;;;;;10.80;99.90;;;;;;5013653;28;19970;-76
2023/10/22 04:42:28;;;;;;;;;;;10.80;99.90;;;;;;5014364;28;19970;-77
2023/10/22 04:44:56;;;;;;;;;;;10.80;99.90;;;;;;5014074;28;19959;-76
2023/10/22 04:47:23;;;;;;;;;;;10.80;99.90;;;;;;5014310;28;20006;-78
2023/10/22 04:49:52;;;;;;;;;;;10.80;99.90;;;;;;5021744;28;20058;-75
2023/10/22 04:52:30;;;;;;;;;;;10.80;99.90;;;;;;5014255;28;20374;-76
2023/10/22 04:54:59;;;;;;;;;;;10.80;99.90;;;;;;5014132;28;20018;-77
2023/10/22 04:57:30;;;;;;;;;;;10.80;99.90;;;;;;5014220;28;19963;-76
2023/10/22 04:59:57;;;;;;;;;;;10.80;99.90;;;;;;5013804;28;19968;-77
2023/10/22 05:02:25;;;;;;;;;;;10.80;99.90;;;;;;5013856;28;19991;-77
2023/10/22 05:04:54;;;;;;;;;;;10.90;99.90;;;;;;5013538;28;20014;-79
2023/10/22 05:07:22;;;;;;;;;;;10.90;99.90;;;;;;5013918;28;19963;-75
2023/10/22 05:09:50;;;;;;;;;;;10.90;99.90;;;;;;5021532;28;20418;-75
2023/10/22 05:12:18;;;;;;;;;;;10.90;99.90;;;;;;5013801;28;19967;-76
2023/10/22 05:14:46;;;;;;;;;;;10.90;99.90;;;;;;5013484;28;20065;-76
2023/10/22 05:17:14;;;;;;;;;;;10.90;99.90;;;;;;5013502;28;20469;-79
2023/10/22 05:19:43;;;;;;;;;;;11.00;99.90;;;;;;5013232;28;20022;-77
2023/10/22 05:22:12;;;;;;;;;;;11.00;99.90;;;;;;5018821;28;20134;-77
2023/10/22 05:24:39;;;;;;;;;;;11.00;99.90;;;;;;5014501;28;20300;-77
2023/10/22 05:27:08;;;;;;;;;;;11.00;99.90;;;;;;5013149;28;20398;-80
2023/10/22 05:29:37;;;;;;;;;;;11.00;99.90;;;;;;5015836;28;20414;-78
2023/10/22 05:32:06;;;;;;;;;;;11.00;99.90;;;;;;5015351;28;20043;-76
2023/10/22 05:34:34;;;;;;;;;;;11.00;99.90;;;;;;5013183;28;19963;-77
2023/10/22 05:37:03;;;;;;;;;;;11.10;99.90;;;;;;5013314;28;19960;-77
2023/10/22 05:39:32;;;;;;;;;;;11.00;99.90;;;;;;5012254;28;20430;-76
2023/10/22 05:42:00;;;;;;;;;;;11.00;99.90;;;;;;5012786;28;19963;-76
2023/10/22 05:44:28;;;;;;;;;;;11.10;99.90;;;;;;5012850;28;19964;-77
2023/10/22 05:46:56;;;;;;;;;;;11.10;99.90;;;;;;5012441;28;20426;-76
2023/10/22 05:49:23;;;;;;;;;;;11.10;99.90;;;;;;5012696;28;19963;-78
2023/10/22 05:51:51;;;;;;;;;;;11.10;99.90;;;;;;5013631;28;20142;-80
2023/10/22 05:54:19;;;;;;;;;;;11.10;99.90;;;;;;5011413;28;19970;-77
2023/10/22 05:56:48;;;;;;;;;;;11.10;99.90;;;;;;5010495;28;19960;-74
2023/10/22 05:59:16;;;;;;;;;;;11.10;99.90;;;;;;5013947;28;20017;-78
2023/10/22 06:01:44;;;;;;;;;;;11.10;99.90;;;;;;5011307;28;19960;-76
2023/10/22 06:04:11;;;;;;;;;;;11.20;99.90;;;;;;5014947;28;19964;-74
2023/10/22 06:06:39;;;;;;;;;;;11.20;99.90;;;;;;5011093;28;19967;-76
2023/10/22 06:09:07;;;;;;;;;;;11.20;99.90;;;;;;5010829;28;20456;-75
2023/10/22 06:11:35;;;;;;;;;;;11.20;99.90;;;;;;5010122;28;19983;-78
2023/10/22 06:14:04;;;;;;;;;;;11.20;99.90;;;;;;5011562;28;19967;-77
2023/10/22 06:16:32;;;;;;;;;;;11.20;99.90;;;;;;5011141;28;20029;-77
2023/10/22 06:19:00;;;;;;;;;;;11.30;99.90;;;;;;5010760;28;20050;-76
2023/10/22 06:21:28;;;;;;;;;;;11.30;99.90;;;;;;4993734;28;19959;-77
2023/10/22 06:23:55;;;;;;;;;;;11.30;99.90;;;;;;5011226;28;19963;-77
2023/10/22 06:26:23;;;;;;;;;;;11.30;99.90;;;;;;5010954;28;20062;-79
2023/10/22 06:28:51;;;;;;;;;;;11.30;99.90;;;;;;5010656;28;20412;-78
2023/10/22 06:31:20;;;;;;;;;;;11.40;99.90;;;;;;5010316;28;20017;-80
2023/10/22 06:33:48;;;;;;;;;;;11.40;99.90;;;;;;5011016;28;20065;-76
2023/10/22 06:36:17;;;;;;;;;;;11.50;99.90;;;;;;5010983;28;20071;-76
2023/10/22 06:38:46;;;;;;;;;;;11.50;99.90;;;;;;5012466;28;19966;-76
2023/10/22 06:41:14;;;;;;;;;;;11.50;99.90;;;;;;5007924;28;20404;-78
2023/10/22 06:43:42;;;;;;;;;;;11.50;99.90;;;;;;5009760;28;20058;-77
2023/10/22 06:46:10;;;;;;;;;;;11.60;99.90;;;;;;5014585;28;19959;-77
2023/10/22 06:48:40;;;;;;;;;;;11.60;99.90;;;;;;5010836;28;19988;-78
2023/10/22 06:51:11;;;;;;;;;;;11.60;99.90;;;;;;5010523;28;19967;-74
2023/10/22 06:53:39;;;;;;;;;;;11.60;99.90;;;;;;5010242;28;20423;-76
2023/10/22 06:56:07;;;;;;;;;;;11.70;99.90;;;;;;5010992;28;19964;-76
2023/10/22 06:58:36;;;;;;;;;;;11.70;99.90;;;;;;5010240;28;19995;-77
2023/10/22 07:01:04;;;;;;;;;;;11.80;99.90;;;;;;5010510;28;19971;-76
2023/10/22 07:03:32;;;;;;;;;;;11.80;99.90;;;;;;5009526;28;20057;-78
2023/10/22 07:06:01;;;;;;;;;;;11.90;99.90;;;;;;5009928;28;19963;-76
2023/10/22 07:08:29;;;;;;;;;;;11.90;99.90;;;;;;5011256;28;19959;-76
2023/10/22 07:10:57;;;;;;;;;;;11.90;99.90;;;;;;5010344;28;20368;-78
2023/10/22 07:13:25;;;;;;;;;;;11.90;99.90;;;;;;5010578;28;20462;-78
2023/10/22 07:15:54;;;;;;;;;;;12.00;99.90;;;;;;5010038;28;20020;-76
2023/10/22 07:18:22;;;;;;;;;;;12.10;99.90;;;;;;5009921;28;20480;-76
2023/10/22 07:20:50;;;;;;;;;;;12.10;99.90;;;;;;5010193;28;19959;-77
2023/10/22 07:23:19;;;;;;;;;;;12.20;99.90;;;;;;5009921;28;19963;-77
2023/10/22 07:25:47;;;;;;;;;;;12.30;99.90;;;;;;5010126;28;19959;-76
2023/10/22 07:28:16;;;;;;;;;;;12.40;99.90;;;;;;5010155;28;19960;-77
2023/10/22 07:30:48;;;;;;;;;;;12.40;99.90;;;;;;4992709;28;19963;-78
2023/10/22 07:33:17;;;;;;;;;;;12.50;99.90;;;;;;5010040;28;19960;-75
2023/10/22 07:35:52;;;;;;;;;;;12.60;99.90;;;;;;5009906;28;20345;-75
2023/10/22 07:38:21;;;;;;;;;;;12.70;99.90;;;;;;5009749;28;19960;-76
2023/10/22 07:40:50;;;;;;;;;;;12.90;99.90;;;;;;4997689;28;19967;-76
2023/10/22 07:43:19;;;;;;;;;;;13.20;99.90;;;;;;5011984;28;20488;-75
2023/10/22 07:45:47;;;;;;;;;;;13.40;99.90;;;;;;4993636;28;20051;-76
2023/10/22 07:48:15;;;;;;;;;;;13.60;99.90;;;;;;5014162;28;19959;-75
2023/10/22 07:50:43;;;;;;;;;;;13.80;99.90;;;;;;5010109;28;19975;-76
2023/10/22 07:53:11;;;;;;;;;;;14.00;99.90;;;;;;5015669;28;19967;-75
2023/10/22 07:55:42;;;;;;;;;;;14.10;99.90;;;;;;5014055;28;19988;-76
2023/10/22 07:58:10;;;;;;;;;;;14.30;99.90;;;;;;5011377;28;19963;-77
2023/10/22 08:00:38;;;;;;;;;;;14.40;99.90;;;;;;5013079;28;20474;-76
2023/10/22 08:03:06;;;;;;;;;;;14.30;99.90;;;;;;5014229;28;19966;-76
2023/10/22 08:05:34;;;;;;;;;;;14.20;99.90;;;;;;5013071;28;19959;-76
2023/10/22 08:08:02;;;;;;;;;;;14.10;99.90;;;;;;5012782;28;19998;-75
2023/10/22 08:10:30;;;;;;;;;;;14.00;99.90;;;;;;5013470;28;19960;-76
2023/10/22 08:12:59;;;;;;;;;;;13.90;99.90;;;;;;5013068;28;19967;-76
2023/10/22 08:15:27;;;;;;;;;;;13.80;99.90;;;;;;5013220;28;19960;-76
2023/10/22 08:17:55;;;;;;;;;;;13.70;99.90;;;;;;5013686;28;19966;-78
2023/10/22 08:20:23;;;;;;;;;;;13.60;99.90;;;;;;5010106;28;20458;-80
2023/10/22 08:22:50;;;;;;;;;;;13.60;99.90;;;;;;5013235;28;19967;-76
2023/10/22 08:25:18;;;;;;;;;;;13.50;99.90;;;;;;5016643;28;19964;-77
2023/10/22 08:27:46;;;;;;;;;;;13.60;99.90;;;;;;5013842;28;20342;-77
2023/10/22 08:30:15;;;;;;;;;;;13.50;99.90;;;;;;5015240;28;19967;-77
2023/10/22 08:32:46;;;;;;;;;;;13.50;99.90;;;;;;5015533;28;19991;-77
2023/10/22 08:35:14;;;;;;;;;;;13.50;99.90;;;;;;5012739;28;19999;-76
2023/10/22 08:37:42;;;;;;;;;;;13.50;99.90;;;;;;5012799;28;19968;-77
2023/10/22 08:40:12;;;;;;;;;;;13.40;99.90;;;;;;5013941;28;19994;-76
2023/10/22 08:42:40;;;;;;;;;;;13.40;99.90;;;;;;5012831;28;20053;-76
2023/10/22 08:45:09;;;;;;;;;;;13.30;99.90;;;;;;4995000;28;19971;-77
2023/10/22 08:47:39;;;;;;;;;;;13.30;99.90;;;;;;5010156;28;19966;-77
2023/10/22 08:50:10;;;;;;;;;;;13.30;99.90;;;;;;5016679;28;19964;-77
2023/10/22 08:52:38;;;;;;;;;;;13.30;99.90;;;;;;5009611;28;19963;-76
2023/10/22 08:55:07;;;;;;;;;;;13.40;99.90;;;;;;5011288;28;19967;-77
2023/10/22 08:57:36;;;;;;;;;;;13.40;99.90;;;;;;5013110;28;19963;-76
2023/10/22 09:00:05;;;;;;;;;;;13.40;99.90;;;;;;5012377;28;19971;-77
2023/10/22 09:02:33;;;;;;;;;;;13.40;99.90;;;;;;5012744;28;19963;-77
2023/10/22 09:05:03;;;;;;;;;;;13.50;99.90;;;;;;5012402;28;19960;-77
2023/10/22 09:07:55;;;;;;;;;;;13.40;99.90;;;;;;5010472;28;19960;-75
2023/10/22 09:10:28;;;;;;;;;;;13.40;99.90;;;;;;4998501;28;19979;-78
2023/10/22 09:13:09;;;;;;;;;;;13.50;99.90;;;;;;5013834;28;19970;-76
2023/10/22 09:15:38;;;;;;;;;;;13.60;99.90;;;;;;5012259;28;19995;-77
2023/10/22 09:18:06;;;;;;;;;;;13.70;99.90;;;;;;5012595;28;19970;-77
2023/10/22 09:20:36;;;;;;;;;;;13.70;99.90;;;;;;5010740;28;19964;-77
2023/10/22 09:23:15;;;;;;;;;;;13.80;99.90;;;;;;5005154;28;19959;-76
2023/10/22 09:25:43;;;;;;;;;;;13.90;99.90;;;;;;5012871;28;20484;-76
2023/10/22 09:28:15;;;;;;;;;;;13.90;99.90;;;;;;5019189;28;19966;-77
2023/10/22 09:30:43;;;;;;;;;;;13.90;99.90;;;;;;5009898;28;19967;-77
2023/10/22 09:33:11;;;;;;;;;;;13.90;99.90;;;;;;5020039;28;20421;-77
2023/10/22 09:35:40;;;;;;;;;;;13.80;99.90;;;;;;5012369;28;20002;-78
2023/10/22 09:38:10;;;;;;;;;;;13.90;99.90;;;;;;5011595;28;19959;-77
2023/10/22 09:40:39;;;;;;;;;;;13.90;99.90;;;;;;5011563;28;20088;-76
2023/10/22 09:43:08;;;;;;;;;;;13.90;99.90;;;;;;5011497;28;19970;-77
2023/10/22 09:45:37;;;;;;;;;;;13.80;99.90;;;;;;5011559;28;20426;-76
2023/10/22 09:48:06;;;;;;;;;;;13.90;99.90;;;;;;5011969;28;19959;-75
2023/10/22 09:50:44;;;;;;;;;;;14.00;99.90;;;;;;5011865;28;19967;-76
2023/10/22 09:53:16;;;;;;;;;;;14.10;99.90;;;;;;5011713;28;19960;-77
2023/10/22 09:55:46;;;;;;;;;;;14.30;99.90;;;;;;5011338;28;19970;-76
2023/10/22 09:58:16;;;;;;;;;;;14.40;99.90;;;;;;5010944;28;19971;-78
2023/10/22 10:00:45;;;;;;;;;;;14.80;99.90;;;;;;5008977;28;19963;-77
2023/10/22 10:03:20;;;;;;;;;;;15.00;99.90;;;;;;5011904;28;19966;-76
2023/10/22 10:05:51;;;;;;;;;;;14.90;99.90;;;;;;5011951;28;19981;-76
2023/10/22 10:08:19;;;;;;;;;;;14.70;99.90;;;;;;5010781;28;19970;-77
2023/10/22 10:10:48;;;;;;;;;;;14.90;99.90;;;;;;5011002;28;20054;-76
2023/10/22 10:13:16;;;;;;;;;;;14.90;99.90;;;;;;5015540;28;20440;-77
2023/10/22 10:15:43;;;;;;;;;;;14.80;99.90;;;;;;5011862;28;19966;-78
2023/10/22 10:18:11;;;;;;;;;;;14.80;99.90;;;;;;5011352;28;19970;-76
2023/10/22 10:20:41;;;;;;;;;;;14.90;99.90;;;;;;5010689;28;19959;-77
2023/10/22 10:23:12;;;;;;;;;;;14.70;99.90;;;;;;5009386;28;19964;-75
2023/10/22 10:25:41;;;;;;;;;;;14.70;99.90;;;;;;5010581;28;19982;-78
2023/10/22 10:28:13;;;;;;;;;;;14.70;99.90;;;;;;5011120;28;20415;-77
2023/10/22 10:30:42;;;;;;;;;;;14.80;99.90;;;;;;5007865;28;19990;-77
2023/10/22 10:33:14;;;;;;;;;;;14.80;99.90;;;;;;5011136;28;20456;-77
2023/10/22 10:35:45;;;;;;;;;;;14.80;99.90;;;;;;5014526;28;21504;-78
2023/10/22 10:38:28;;;;;;;;;;;14.80;99.90;;;;;;4992483;28;19967;-77
2023/10/22 10:40:57;;;;;;;;;;;14.80;99.90;;;;;;5010917;28;20041;-77
2023/10/22 10:43:48;;;;;;;;;;;14.80;99.90;;;;;;5005689;28;19991;-76
2023/10/22 10:46:26;;;;;;;;;;;14.70;99.90;;;;;;5010172;28;20014;-76
2023/10/22 10:48:54;;;;;;;;;;;14.70;99.90;;;;;;5010062;28;19963;-77
2023/10/22 10:51:24;;;;;;;;;;;14.80;99.90;;;;;;5010561;28;19967;-76
2023/10/22 10:54:14;;;;;;;;;;;14.80;99.90;;;;;;5014389;28;20389;-76
2023/10/22 10:56:47;;;;;;;;;;;14.80;99.90;;;;;;4992332;28;20441;-75
2023/10/22 10:59:33;;;;;;;;;;;14.90;99.90;;;;;;4992696;28;19967;-76
2023/10/22 11:02:02;;;;;;;;;;;15.00;99.90;;;;;;4992618;28;19967;-77
2023/10/22 11:04:31;;;;;;;;;;;15.00;99.90;;;;;;4993189;28;19987;-77
2023/10/22 11:06:59;;;;;;;;;;;15.10;99.90;;;;;;5009902;28;19959;-77
2023/10/22 11:09:47;;;;;;;;;;;15.10;99.90;;;;;;5010936;28;19963;-78
2023/10/22 11:12:15;;;;;;;;;;;15.00;99.90;;;;;;5014298;28;19991;-77
2023/10/22 11:14:43;;;;;;;;;;;15.00;99.90;;;;;;5007431;28;19967;-77
2023/10/22 11:17:11;;;;;;;;;;;14.80;99.90;;;;;;5010176;28;19959;-77
2023/10/22 11:19:39;;;;;;;;;;;14.80;99.90;;;;;;5010189;28;19995;-78
2023/10/22 11:22:12;;;;;;;;;;;14.80;99.90;;;;;;5012933;28;19968;-77
2023/10/22 11:24:41;;;;;;;;;;;14.80;99.90;;;;;;5010551;28;19963;-77
2023/10/22 11:27:10;;;;;;;;;;;14.80;99.90;;;;;;5010716;28;19964;-78
2023/10/22 11:29:42;;;;;;;;;;;14.80;99.90;;;;;;5010357;28;19963;-77
2023/10/22 11:32:13;;;;;;;;;;;14.80;99.90;;;;;;5013725;28;19974;-78
2023/10/22 11:34:59;;;;;;;;;;;14.70;99.90;;;;;;4996339;28;19963;-78
2023/10/22 11:37:36;;;;;;;;;;;14.70;99.90;;;;;;5014449;28;19959;-78
2023/10/22 11:40:20;;;;;;;;;;;14.80;99.90;;;;;;5013488;28;19983;-77
2023/10/22 11:42:49;;;;;;;;;;;14.90;99.90;;;;;;5013861;28;19959;-76
2023/10/22 11:45:17;;;;;;;;;;;14.90;99.90;;;;;;5015362;28;19959;-77
2023/10/22 11:47:45;;;;;;;;;;;15.00;99.90;;;;;;5021426;28;19966;-77
2023/10/22 11:50:14;;;;;;;;;;;15.10;99.90;;;;;;5013816;28;19959;-77
2023/10/22 11:52:49;;;;;;;;;;;15.10;99.90;;;;;;5011136;28;19969;-76
2023/10/22 11:55:21;;;;;;;;;;;15.10;99.90;;;;;;5018390;28;20018;-77
2023/10/22 11:57:56;;;;;;;;;;;15.00;99.90;;;;;;5013948;28;19959;-78
2023/10/22 12:00:25;;;;;;;;;;;15.00;99.90;;;;;;5014821;28;19959;-77
2023/10/22 12:02:53;;;;;;;;;;;15.00;99.90;;;;;;4996310;28;20413;-78
2023/10/22 12:05:21;;;;;;;;;;;15.10;99.90;;;;;;5013614;28;19959;-76
2023/10/22 12:07:49;;;;;;;;;;;15.10;99.90;;;;;;5013988;28;19970;-78
2023/10/22 12:10:18;;;;;;;;;;;15.20;99.90;;;;;;5013978;28;19963;-77
2023/10/22 12:12:46;;;;;;;;;;;15.20;99.90;;;;;;5000029;28;20152;-77
2023/10/22 12:15:15;;;;;;;;;;;15.20;99.90;;;;;;5013320;28;20046;-77
2023/10/22 12:17:44;;;;;;;;;;;15.20;99.90;;;;;;5016294;28;19966;-76
2023/10/22 12:20:12;;;;;;;;;;;15.20;99.90;;;;;;5012893;28;20334;-78
2023/10/22 12:22:40;;;;;;;;;;;15.20;99.90;;;;;;5013585;28;20013;-76
2023/10/22 12:25:08;;;;;;;;;;;15.30;99.90;;;;;;4995679;28;20340;-78
2023/10/22 12:27:37;;;;;;;;;;;15.30;99.90;;;;;;5022563;28;19967;-77
2023/10/22 12:30:06;;;;;;;;;;;15.30;99.90;;;;;;5014323;28;20050;-76
2023/10/22 12:32:35;;;;;;;;;;;15.30;99.90;;;;;;5000724;28;19959;-76
2023/10/22 12:35:04;;;;;;;;;;;15.30;99.90;;;;;;5013976;28;19967;-76
2023/10/22 12:37:33;;;;;;;;;;;15.30;99.90;;;;;;5015132;28;19959;-77
2023/10/22 12:40:01;;;;;;;;;;;15.40;99.90;;;;;;5014825;28;19960;-76
2023/10/22 12:42:29;;;;;;;;;;;15.50;99.90;;;;;;5013241;28;19959;-76
2023/10/22 12:45:00;;;;;;;;;;;15.50;99.90;;;;;;5011014;28;20014;-76
2023/10/22 12:47:28;;;;;;;;;;;15.50;99.90;;;;;;5017866;28;20422;-76
2023/10/22 12:49:57;;;;;;;;;;;15.50;99.90;;;;;;5012508;28;19998;-76
2023/10/22 12:52:25;;;;;;;;;;;15.50;99.90;;;;;;5013255;28;20057;-75
2023/10/22 12:54:53;;;;;;;;;;;15.50;99.90;;;;;;5011901;28;20010;-76
2023/10/22 12:57:22;;;;;;;;;;;15.50;99.90;;;;;;5014218;28;19963;-76
2023/10/22 12:59:50;;;;;;;;;;;15.50;99.90;;;;;;5012411;28;19959;-75
2023/10/22 13:02:17;;;;;;;;;;;15.40;99.90;;;;;;5012305;28;20050;-76
2023/10/22 13:04:47;;;;;;;;;;;15.40;99.90;;;;;;5012139;28;20041;-76
2023/10/22 13:07:16;;;;;;;;;;;15.30;99.90;;;;;;4996999;28;19960;-75
2023/10/22 13:09:45;;;;;;;;;;;15.30;99.90;;;;;;5012900;28;19967;-75
2023/10/22 13:12:13;;;;;;;;;;;15.30;99.90;;;;;;5015573;28;19968;-76
2023/10/22 13:14:41;;;;;;;;;;;15.30;99.90;;;;;;5011690;28;19975;-76
2023/10/22 13:17:09;;;;;;;;;;;15.20;99.90;;;;;;5012950;28;19959;-76
2023/10/22 13:19:37;;;;;;;;;;;15.20;99.90;;;;;;5011518;28;20386;-75
2023/10/22 13:22:06;;;;;;;;;;;15.20;99.90;;;;;;5011599;28;19966;-78
2023/10/22 13:24:36;;;;;;;;;;;15.30;99.90;;;;;;5020019;28;19990;-77
2023/10/22 13:27:04;;;;;;;;;;;15.30;99.90;;;;;;5000526;28;20657;-79
2023/10/22 13:29:32;;;;;;;;;;;15.50;99.90;;;;;;5014662;28;20050;-77
2023/10/22 13:32:00;;;;;;;;;;;15.70;99.90;;;;;;5013906;28;20050;-74
2023/10/22 13:34:29;;;;;;;;;;;15.80;99.90;;;;;;5012087;28;19970;-76
2023/10/22 13:36:57;;;;;;;;;;;15.90;99.90;;;;;;5011977;28;20476;-77
2023/10/22 13:39:25;;;;;;;;;;;16.00;99.90;;;;;;5011145;28;19966;-77
2023/10/22 13:41:54;;;;;;;;;;;15.90;99.90;;;;;;5013680;28;20376;-75
2023/10/22 13:44:22;;;;;;;;;;;16.00;99.90;;;;;;5012263;28;19975;-76
2023/10/22 13:46:50;;;;;;;;;;;15.90;99.90;;;;;;5011129;28;19959;-76
2023/10/22 13:49:18;;;;;;;;;;;16.00;99.90;;;;;;5011700;28;19963;-76
2023/10/22 13:51:46;;;;;;;;;;;15.90;99.90;;;;;;5011562;28;19960;-75
2023/10/22 13:54:14;;;;;;;;;;;15.90;99.90;;;;;;5010644;28;19970;-76
2023/10/22 13:56:42;;;;;;;;;;;15.80;99.90;;;;;;5011402;28;19959;-77
2023/10/22 13:59:14;;;;;;;;;;;15.80;99.90;;;;;;5013253;28;19966;-77
2023/10/22 14:01:43;;;;;;;;;;;15.70;99.90;;;;;;5012743;28;20457;-78
2023/10/22 14:04:11;;;;;;;;;;;15.50;99.90;;;;;;5010921;28;20445;-77
2023/10/22 14:06:39;;;;;;;;;;;15.50;99.90;;;;;;5010606;28;19959;-77
2023/10/22 14:09:10;;;;;;;;;;;15.40;99.90;;;;;;5009943;28;20331;-77
2023/10/22 14:11:38;;;;;;;;;;;15.30;99.90;;;;;;5013724;28;20445;-77
2023/10/22 14:14:06;;;;;;;;;;;15.20;99.90;;;;;;5010918;28;19970;-76
2023/10/22 14:16:36;;;;;;;;;;;15.10;99.90;;;;;;4993415;28;19965;-76
2023/10/22 14:19:04;;;;;;;;;;;15.10;99.90;;;;;;5010742;28;20474;-76
2023/10/22 14:21:33;;;;;;;;;;;15.10;99.90;;;;;;4993975;28;19995;-77
2023/10/22 14:24:01;;;;;;;;;;;15.00;99.90;;;;;;5011005;28;20029;-76
2023/10/22 14:26:30;;;;;;;;;;;14.90;99.90;;;;;;5011385;28;19968;-76